Kiko Solosailor — FW5659 — position and weather

sailwx.info

Track history (hours):
 
Tides and Currents Weather Stations Pressure Air Temp Water Temp Dewpoint Dewpoint Depression Visibility Wind Speed Wind Dir Waves Ship Positions

Kiko Solosailor

Last reported at 2018-Jul-20 01:51 UTC. Time now 2018-Jul-20 10:46 UTC.
Position N 47°21' W 003°02'.

Length 10 m.

Type: Sailing vessel. MMSI: 227519920.

Date/timePositionNaut miles runAvg speedWind from/ knotsBaromVisibWave heightAir tempDewpointWater temp
2018-Jul-20 01:51N 47°21' W 003°02'2 4.8
2018-Jul-20 01:26N 47°22' W 003°05'5 5.1
2018-Jul-20 00:31N 47°24' W 003°11'0 5.4
2018-Jul-20 00:26N 47°24' W 003°12'3 6.4
2018-Jul-20 00:00N 47°25' W 003°16'4 7.2
2018-Jul-19 23:28N 47°27' W 003°21'66 7.4
2018-Jul-19 14:34N 48°01' W 004°45'0 5.3
2018-Jul-19 14:28N 48°01' W 004°45'7 7.3
2018-Jul-19 13:28N 48°09' W 004°44'4 8.3
2018-Jul-19 12:59N 48°12' W 004°41'3 6.5
2018-Jul-19 12:29N 48°15' W 004°40'3 5.2
2018-Jul-19 11:58N 48°18' W 004°38'3 5.7
2018-Jul-19 11:30N 48°20' W 004°35'3 6.7
2018-Jul-19 11:00N 48°22' W 004°31'2 0.0
2018-Jul-17 15:54N 48°23' W 004°29'0 0.0
2018-Jul-17 15:30N 48°23' W 004°29'0 0.6
2018-Jul-17 15:00N 48°22' W 004°29'2 4.5
2018-Jul-17 14:30N 48°21' W 004°32'3 6.2
2018-Jul-17 14:00N 48°20' W 004°36'2 3.4
2018-Jul-17 13:30N 48°18' W 004°38'2 3.3
2018-Jul-17 13:00N 48°17' W 004°38'2 4.0
2018-Jul-17 12:27N 48°15' W 004°38'3 5.5
2018-Jul-17 11:53N 48°12' W 004°36'3 3.0
2018-Jul-17 10:48N 48°11' W 004°31'6 5.3
2018-Jul-17 09:43N 48°08' W 004°23'3 0.2
2018-Jul-16 16:53N 48°06' W 004°20'0 0.0
2018-Jul-16 15:53N 48°06' W 004°20'1 0.9
2018-Jul-16 14:53N 48°07' W 004°21'10 4.6
2018-Jul-16 12:48N 48°10' W 004°34'2 7.0
2018-Jul-16 12:27N 48°13' W 004°36'3 6.2
2018-Jul-16 11:59N 48°15' W 004°38'2 4.5
2018-Jul-16 11:30N 48°17' W 004°38'2 4.4
2018-Jul-16 10:59N 48°19' W 004°36'2 5.3
2018-Jul-16 10:31N 48°21' W 004°33'3 5.1
2018-Jul-16 09:59N 48°22' W 004°29'1 2.0
2018-Jul-16 09:30N 48°23' W 004°29'0 0.0
2018-Jul-16 08:57N 48°23' W 004°29'0 0.0
2018-Jul-16 08:24N 48°23' W 004°29'  
2018-Jul-12 13:23N 48°23' W 004°29'  
Track history (hours):
 
Tides and Currents Weather Stations Pressure Air Temp Water Temp Dewpoint Dewpoint Depression Visibility Wind Speed Wind Dir Waves Ship Positions

Kiko Solosailor

Last reported at 2018-Jul-20 01:51 UTC. Time now 2018-Jul-20 10:46 UTC.
Position N 47°21' W 003°02'.

Length 10 m.

Type: Sailing vessel. MMSI: 227519920.

Date/timePositionNaut miles runAvg speedWind from/ knotsBaromVisibWave heightAir tempDewpointWater temp
2018-Jul-20 01:51N 47°21' W 003°02'2 4.8
2018-Jul-20 01:26N 47°22' W 003°05'5 5.1
2018-Jul-20 00:31N 47°24' W 003°11'0 5.4
2018-Jul-20 00:26N 47°24' W 003°12'3 6.4
2018-Jul-20 00:00N 47°25' W 003°16'4 7.2
2018-Jul-19 23:28N 47°27' W 003°21'66 7.4
2018-Jul-19 14:34N 48°01' W 004°45'0 5.3
2018-Jul-19 14:28N 48°01' W 004°45'7 7.3
2018-Jul-19 13:28N 48°09' W 004°44'4 8.3
2018-Jul-19 12:59N 48°12' W 004°41'3 6.5
2018-Jul-19 12:29N 48°15' W 004°40'3 5.2
2018-Jul-19 11:58N 48°18' W 004°38'3 5.7
2018-Jul-19 11:30N 48°20' W 004°35'3 6.7
2018-Jul-19 11:00N 48°22' W 004°31'2 0.0
2018-Jul-17 15:54N 48°23' W 004°29'0 0.0
2018-Jul-17 15:30N 48°23' W 004°29'0 0.6
2018-Jul-17 15:00N 48°22' W 004°29'2 4.5
2018-Jul-17 14:30N 48°21' W 004°32'3 6.2
2018-Jul-17 14:00N 48°20' W 004°36'2 3.4
2018-Jul-17 13:30N 48°18' W 004°38'2 3.3
2018-Jul-17 13:00N 48°17' W 004°38'2 4.0
2018-Jul-17 12:27N 48°15' W 004°38'3 5.5
2018-Jul-17 11:53N 48°12' W 004°36'3 3.0
2018-Jul-17 10:48N 48°11' W 004°31'6 5.3
2018-Jul-17 09:43N 48°08' W 004°23'3 0.2
2018-Jul-16 16:53N 48°06' W 004°20'0 0.0
2018-Jul-16 15:53N 48°06' W 004°20'1 0.9
2018-Jul-16 14:53N 48°07' W 004°21'10 4.6
2018-Jul-16 12:48N 48°10' W 004°34'2 7.0
2018-Jul-16 12:27N 48°13' W 004°36'3 6.2
2018-Jul-16 11:59N 48°15' W 004°38'2 4.5
2018-Jul-16 11:30N 48°17' W 004°38'2 4.4
2018-Jul-16 10:59N 48°19' W 004°36'2 5.3
2018-Jul-16 10:31N 48°21' W 004°33'3 5.1
2018-Jul-16 09:59N 48°22' W 004°29'1 2.0
2018-Jul-16 09:30N 48°23' W 004°29'0 0.0
2018-Jul-16 08:57N 48°23' W 004°29'0 0.0
2018-Jul-16 08:24N 48°23' W 004°29'  
2018-Jul-12 13:23N 48°23' W 004°29'  

Dump ship's entire track history